Tolmachevo Airport
UNNT : now visible

Airfield :











YOU CAN JOIN US ON...

 
LOGIN :

Register | Disclaimer

   EN    FR    IT 

 









Legend :    VFR   Marginal VFR   IFR   Intensive IFR   Very Intensive IFR
Visi :
Ceiling :
>= 8 km
>= 3000ft
5 to 8 km
1000 to 3000 ft
1500m to 5 km
500 to 1000 ft
800 to 1500m
200 to 500 ft
< 800m
< 200 ft
Symbols :   Thunderstorms  Fog  Heavy snow  Heavy precipitations  Wind > 20 kt






- Airport Elevation : 365 ft
- IATA code : OVB


UNNT - Tolmachevo

CURRENT METAR :
  • 050700Z 34003MPS 9999 BKN033CB 11/05 Q1007 R25/090070 R16/090070 NOSIG RMK QFE746/0994

EXPIRED METARs :
  • 050630Z 03002MPS 340V080 9999 BKN026CB 11/06 Q1007 R25/090070 R16/090070 NOSIG RMK QFE745/0994
  • 050600Z 02003MPS 9999 BKN026CB 10/06 Q1007 R25/290160 R16/290160 NOSIG RMK QFE745/0994
  • 050530Z 04004MPS 9999 SCT014 OVC030CB 10/06 Q1007 R25/290160 R16/290160 NOSIG RMK QFE745/0994
  • 050500Z 05004MPS 9999 SCT014 OVC036CB 09/06 Q1007 R25/290160 R16/290160 NOSIG RMK QFE745/0994
  • 050430Z 03004MPS 9999 SCT014 OVC036CB 09/06 Q1006 R25/290160 R16/290160 NOSIG RMK QFE745/0993
  • 050400Z 02003MPS 340V050 9999 -SHRA SCT010 OVC036CB 08/06 Q1006 R25/290160 R16/290160 NOSIG RMK QFE745/0993

TAF TAF UNNT
Valid from the 05 at 06:00 until the 06 at 06:00 UTC


050500Z 0506/0606 34003G08MPS 9999 -SHRA BKN016CB
TEMPO 0506/0515 03005G10MPS -TSRA
BECMG 0517/0520 26003G08MPS BKN040CB
TEMPO 0520/0606 5000 -SHRA BKN010 BKN040CB
UNNT FIR / Asia



MET'MAP, your aeronautical weather chart ! - Copyright ORBIFLY December 2007 - Disclaimer

ORBIFLY MET'MAP TEAM :

Programming & Development : Alexandra Zaïnal
Concept & original design : Baudouin d'Aumeries
Assistance for programming : Marc-Olivier Méhu
Technical & hardware support : Manuel Goepfert

Contact : metmap@orbifly.com




SOURCES & CREDITS :

   NOAA       Earth
Advisory